Sawyers Bar, California
Current Conditions -  °F | °C
As of 6:10 AM on Friday 19 Dec 2014 (Local Time) from KO86 Reporting Station
Overcast Overcast  
Wind Chill: 39°   Ceiling: 2800
Heat Index: 39°   Visibility: 10mi
Dew Point: 39°   Wind: 3mph
Humidity: 100%   Direction: 50°NE
Pressure: 30.07"   Gusts: NA
Location:  41.4264°N, 123.041°W
Report Text: KO86 191410Z AUTO 05003KT 10SM BKN028 OVC034 04/04 A3007 RMK AO1
Loading
Personal Weather Stations






























Interactive Weather Map New forecast layout! Learn more

10-Day Weather Forecast

Advertisements
Track Severe Weather on mobile